createdAt,value
2023-03-26T00:00:33.232Z,39.78
2023-03-26T00:03:02.502Z,32.55
2023-03-26T00:05:33.611Z,44.17
2023-03-26T00:08:03.277Z,37.92
2023-03-26T00:10:32.631Z,34.67
2023-03-26T00:13:01.759Z,29.67
2023-03-26T00:15:31.433Z,29.15
2023-03-26T00:18:02.948Z,29.90
2023-03-26T00:20:34.654Z,26.45
2023-03-26T00:23:04.182Z,27.83
2023-03-26T00:25:34.711Z,25.02
2023-03-26T00:28:04.332Z,29.67
2023-03-26T00:30:36.143Z,28.05
2023-03-26T00:33:05.457Z,26.83
2023-03-26T00:35:38.196Z,35.72
2023-03-26T00:38:07.667Z,28.23
2023-03-26T00:40:37.195Z,27.80
2023-03-26T00:43:19.755Z,28.85
2023-03-26T00:45:50.128Z,28.60
2023-03-26T00:48:20.875Z,34.67
2023-03-26T00:50:53.060Z,28.23
2023-03-26T00:53:22.580Z,31.55
2023-03-26T00:55:52.180Z,21.17
2023-03-26T00:58:22.739Z,21.20
2023-03-26T01:00:57.829Z,18.45
2023-03-26T01:03:29.652Z,20.27
2023-03-26T01:06:05.102Z,20.67
2023-03-26T01:08:37.262Z,18.85
2023-03-26T01:11:14.505Z,17.58
2023-03-26T01:13:48.368Z,22.38
2023-03-26T01:16:23.776Z,21.60
2023-03-26T01:18:53.260Z,18.60
2023-03-26T01:21:29.057Z,21.83
2023-03-26T01:24:03.655Z,24.45
2023-03-26T01:26:53.207Z,21.63
2023-03-26T01:29:27.173Z,21.02
2023-03-26T01:32:07.074Z,18.75
2023-03-26T01:34:47.463Z,20.35
2023-03-26T01:37:22.830Z,27.65
2023-03-26T01:39:58.750Z,22.02
2023-03-26T01:42:36.563Z,18.55
2023-03-26T01:45:11.954Z,26.00
2023-03-26T01:47:43.889Z,21.35
2023-03-26T01:50:13.370Z,24.05
2023-03-26T01:52:42.823Z,25.40
2023-03-26T01:55:14.827Z,25.23
2023-03-26T01:57:54.491Z,24.35
2023-03-26T02:00:31.190Z,17.40
2023-03-26T02:03:23.896Z,22.77
2023-03-26T02:05:59.685Z,20.63
2023-03-26T02:08:37.114Z,22.77
2023-03-26T02:11:13.317Z,17.08
2023-03-26T02:13:44.495Z,27.05
2023-03-26T02:16:16.836Z,21.25
2023-03-26T02:18:46.576Z,21.45
2023-03-26T02:21:20.643Z,22.80
2023-03-26T02:23:58.193Z,20.00
2023-03-26T02:26:28.841Z,25.65
2023-03-26T02:28:58.808Z,24.15
2023-03-26T02:31:28.161Z,25.20
2023-03-26T02:33:57.695Z,31.80
2023-03-26T02:36:28.420Z,27.08
2023-03-26T02:38:58.755Z,30.38
2023-03-26T02:41:29.686Z,29.88
2023-03-26T02:43:58.954Z,21.90
2023-03-26T02:46:28.266Z,24.63
2023-03-26T02:48:57.514Z,20.42
2023-03-26T02:51:27.769Z,26.10
2023-03-26T02:53:56.873Z,26.98
2023-03-26T02:56:26.126Z,24.20
2023-03-26T02:58:56.806Z,25.02
2023-03-26T03:01:26.215Z,25.92
2023-03-26T03:03:55.539Z,22.27
2023-03-26T03:06:26.879Z,21.30
2023-03-26T03:08:56.120Z,25.23
2023-03-26T03:11:25.344Z,22.80
2023-03-26T03:13:56.394Z,20.20
2023-03-26T03:16:26.209Z,19.83
2023-03-26T03:18:58.094Z,21.85
2023-03-26T03:21:28.912Z,22.42
2023-03-26T03:24:00.627Z,22.33
2023-03-26T03:26:31.045Z,20.63
2023-03-26T03:29:02.066Z,23.23
2023-03-26T03:31:31.321Z,19.92
2023-03-26T03:34:00.474Z,28.75
2023-03-26T03:36:30.827Z,20.67
2023-03-26T03:39:03.044Z,18.85
2023-03-26T03:41:32.569Z,18.13
2023-03-26T03:44:03.325Z,22.92
2023-03-26T03:46:32.614Z,21.40
2023-03-26T03:49:02.885Z,20.20
2023-03-26T03:51:32.088Z,20.40
2023-03-26T03:54:01.327Z,20.30
2023-03-26T03:56:30.765Z,20.80
2023-03-26T03:59:00.154Z,29.25
2023-03-26T04:01:31.236Z,25.95
2023-03-26T04:04:01.085Z,21.48
2023-03-26T04:06:30.764Z,26.25
2023-03-26T04:09:00.022Z,19.08
2023-03-26T04:11:29.379Z,23.80
2023-03-26T04:13:58.598Z,19.58
2023-03-26T04:16:27.922Z,17.30
2023-03-26T04:18:58.995Z,22.63
2023-03-26T04:21:30.879Z,20.23
2023-03-26T04:24:02.183Z,20.00
2023-03-26T04:26:31.882Z,24.25
2023-03-26T04:29:03.870Z,19.83
2023-03-26T04:31:34.642Z,20.90
2023-03-26T04:34:14.690Z,17.45
2023-03-26T04:36:46.779Z,20.15
2023-03-26T04:39:16.113Z,16.85
2023-03-26T04:41:46.464Z,18.45
2023-03-26T04:44:17.695Z,18.40
2023-03-26T04:46:47.848Z,19.45
2023-03-26T04:49:18.554Z,18.10
2023-03-26T04:51:49.226Z,18.83
2023-03-26T04:54:20.631Z,19.45
2023-03-26T04:56:54.927Z,21.30
2023-03-26T04:59:30.774Z,22.08
2023-03-26T05:04:31.679Z,23.02
2023-03-26T05:07:01.345Z,20.98
2023-03-26T05:09:31.155Z,18.75
2023-03-26T05:12:00.528Z,22.20
2023-03-26T05:14:29.825Z,17.35
2023-03-26T05:17:01.135Z,22.42
2023-03-26T05:19:31.998Z,19.27
2023-03-26T05:22:01.388Z,23.13
2023-03-26T05:24:30.948Z,17.25
2023-03-26T05:27:00.298Z,16.73
2023-03-26T05:29:29.611Z,19.45
2023-03-26T05:31:58.887Z,19.77
2023-03-26T05:34:28.146Z,23.73
2023-03-26T05:36:58.946Z,20.60
2023-03-26T05:39:30.467Z,18.20
2023-03-26T05:41:59.732Z,14.15
2023-03-26T05:44:29.149Z,13.95
